Edzard Schulte — 2CVX9 — position and weather

sailwx.info

Track history (hours):
 
Tides and Currents Weather Stations Pressure Air Temp Water Temp Dewpoint Dewpoint Depression Visibility Wind Speed Wind Dir Waves Ship Positions

Edzard Schulte

Last reported at 2017-Jul-19 10:08 UTC. Time now 2017-Jul-26 18:40 UTC.
Position N 45°13' W 074°02'.

Length 145 m; draft 7.7 m.

Type: Tanker. MMSI: 235076245.

Date/timePositionNaut miles runAvg speedWind from/ knotsBaromVisibWave heightAir tempDewpointWater temp
2017-Jul-19 10:08N 45°13' W 074°02'1 7.0
2017-Jul-19 10:00N 45°14' W 074°01'4 7.6
2017-Jul-19 09:30N 45°16' W 073°57'2 4.4
2017-Jul-19 09:00N 45°18' W 073°56'0 0.9
2017-Jul-19 08:30N 45°19' W 073°55'0 0.8
2017-Jul-19 08:00N 45°19' W 073°55'1 2.2
2017-Jul-19 07:30N 45°20' W 073°54'5 9.3
2017-Jul-19 07:00N 45°23' W 073°49'5 9.3
2017-Jul-19 06:30N 45°25' W 073°43'3 5.7
2017-Jul-19 06:00N 45°24' W 073°39'3 6.4
2017-Jul-19 05:30N 45°24' W 073°34'0 0.8
2017-Jul-19 04:59N 45°24' W 073°34'2 3.6
2017-Jul-19 04:30N 45°25' W 073°31'  
2017-Jul-13 17:26N 40°27' W 073°47'4 9.0
2017-Jul-13 17:00N 40°28' W 073°52'5 9.9
2017-Jul-13 16:30N 40°31' W 073°58'4 8.2
2017-Jul-13 16:00N 40°34' W 074°02'4 7.9
2017-Jul-13 15:30N 40°37' W 074°04'0 0.7
2017-Jul-13 15:00N 40°38' W 074°04'0 0.1
2017-Jul-13 14:30N 40°38' W 074°04'1 1.0
2017-Jul-13 14:00N 40°38' W 074°03'4 8.0
2017-Jul-13 13:30N 40°34' W 074°02'5 9.4
2017-Jul-13 12:59N 40°29' W 074°03'3 7.2
2017-Jul-13 12:30N 40°30' W 074°07'4 8.3
2017-Jul-13 12:00N 40°30' W 074°13'3 3.3
2017-Jul-13 11:12N 40°32' W 074°15'1 0.0
2017-Jul-12 04:47N 40°34' W 074°14'0 0.5
2017-Jul-12 04:30N 40°33' W 074°14'2 4.3
2017-Jul-12 03:59N 40°35' W 074°12'3 5.5
2017-Jul-12 03:30N 40°38' W 074°12'3 5.5
2017-Jul-12 03:01N 40°39' W 074°09'2 4.2
2017-Jul-12 02:30N 40°39' W 074°06'2 4.4
2017-Jul-12 02:00N 40°39' W 074°03'0 0.0
2017-Jul-12 01:30N 40°39' W 074°03'0 0.0
2017-Jul-12 01:00N 40°39' W 074°03'0 0.0
2017-Jul-12 00:30N 40°39' W 074°03'0 0.0
2017-Jul-12 00:00N 40°39' W 074°03'0 0.2
2017-Jul-11 23:30N 40°39' W 074°03'0 0.1
2017-Jul-11 23:00N 40°39' W 074°03'0 0.1
2017-Jul-11 22:30N 40°39' W 074°03'0 0.1
2017-Jul-11 22:00N 40°39' W 074°03'0 0.1
2017-Jul-11 21:30N 40°39' W 074°03'0 0.0
2017-Jul-11 21:00N 40°39' W 074°03'0 0.0
2017-Jul-11 20:30N 40°39' W 074°03'0 0.1
2017-Jul-11 20:00N 40°39' W 074°03'0 0.0
2017-Jul-11 19:30N 40°39' W 074°03'0 0.0
2017-Jul-11 19:00N 40°39' W 074°03'0 0.1
2017-Jul-11 18:30N 40°39' W 074°03'0 0.0
2017-Jul-11 18:00N 40°39' W 074°03'0 0.1
2017-Jul-11 17:30N 40°39' W 074°03'0 0.1
2017-Jul-11 17:00N 40°39' W 074°03'0 0.1
2017-Jul-11 16:30N 40°39' W 074°03'0 0.2
2017-Jul-11 16:00N 40°39' W 074°03'0 0.0
2017-Jul-11 15:30N 40°39' W 074°03'0 0.1
2017-Jul-11 15:00N 40°39' W 074°03'0 0.0
2017-Jul-11 14:27N 40°39' W 074°03'0 0.0
2017-Jul-11 14:00N 40°39' W 074°03'0 0.0
2017-Jul-11 13:30N 40°39' W 074°03'0 0.0
2017-Jul-11 13:00N 40°39' W 074°03'3 5.0
2017-Jul-11 12:30N 40°36' W 074°03'510.4
2017-Jul-11 12:00N 40°31' W 074°00'610.9
2017-Jul-11 11:30N 40°29' W 073°54'12 2.2
2017-Jul-11 06:09N 40°29' W 073°38'0 0.0
2017-Jul-11 05:45N 40°29' W 073°38'0 0.0
2017-Jul-11 05:30N 40°29' W 073°38'0 0.0
2017-Jul-11 04:57N 40°29' W 073°38'0 0.0
2017-Jul-11 00:57N 40°29' W 073°38'0 0.0
2017-Jul-11 00:30N 40°29' W 073°38'0 0.0
2017-Jul-11 00:00N 40°29' W 073°38'0 0.0
2017-Jul-10 22:01N 40°29' W 073°38'0 1.0
2017-Jul-10 22:00N 40°29' W 073°38'5 8.1
2017-Jul-10 21:26N 40°28' W 073°32'512.5
2017-Jul-10 21:00N 40°29' W 073°25'612.5
2017-Jul-10 20:30N 40°29' W 073°17'612.7
2017-Jul-10 19:59N 40°30' W 073°08'912.6
2017-Jul-10 19:14N 40°30' W 072°56'512.3
2017-Jul-10 18:50N 40°31' W 072°49'13 9.1
2017-Jul-10 17:24N 40°31' W 072°32'512.0
2017-Jul-10 16:59N 40°31' W 072°26'611.9
2017-Jul-10 16:30N 40°31' W 072°18'611.6
2017-Jul-10 16:00N 40°31' W 072°11'2311.7
2017-Jul-10 14:03N 40°32' W 071°41'111.8
2017-Jul-10 13:59N 40°32' W 071°39'612.0
2017-Jul-10 13:30N 40°32' W 071°32'1012.2
2017-Jul-10 12:40N 40°33' W 071°19'212.3
2017-Jul-10 12:30N 40°33' W 071°16'612.4
2017-Jul-10 12:00N 40°33' W 071°08'712.5
2017-Jul-10 11:26N 40°33' W 070°58'612.5
2017-Jul-10 10:59N 40°33' W 070°51'8712.1
2017-Jul-10 03:50N 40°35' W 068°57'1312.1
2017-Jul-10 02:46N 40°36' W 068°40'312.1
2017-Jul-10 02:29N 40°37' W 068°36'  
Track history (hours):
 
Tides and Currents Weather Stations Pressure Air Temp Water Temp Dewpoint Dewpoint Depression Visibility Wind Speed Wind Dir Waves Ship Positions

Edzard Schulte

Last reported at 2017-Jul-19 10:08 UTC. Time now 2017-Jul-26 18:40 UTC.
Position N 45°13' W 074°02'.

Length 145 m; draft 7.7 m.

Type: Tanker. MMSI: 235076245.

Date/timePositionNaut miles runAvg speedWind from/ knotsBaromVisibWave heightAir tempDewpointWater temp
2017-Jul-19 10:08N 45°13' W 074°02'1 7.0
2017-Jul-19 10:00N 45°14' W 074°01'4 7.6
2017-Jul-19 09:30N 45°16' W 073°57'2 4.4
2017-Jul-19 09:00N 45°18' W 073°56'0 0.9
2017-Jul-19 08:30N 45°19' W 073°55'0 0.8
2017-Jul-19 08:00N 45°19' W 073°55'1 2.2
2017-Jul-19 07:30N 45°20' W 073°54'5 9.3
2017-Jul-19 07:00N 45°23' W 073°49'5 9.3
2017-Jul-19 06:30N 45°25' W 073°43'3 5.7
2017-Jul-19 06:00N 45°24' W 073°39'3 6.4
2017-Jul-19 05:30N 45°24' W 073°34'0 0.8
2017-Jul-19 04:59N 45°24' W 073°34'2 3.6
2017-Jul-19 04:30N 45°25' W 073°31'  
2017-Jul-13 17:26N 40°27' W 073°47'4 9.0
2017-Jul-13 17:00N 40°28' W 073°52'5 9.9
2017-Jul-13 16:30N 40°31' W 073°58'4 8.2
2017-Jul-13 16:00N 40°34' W 074°02'4 7.9
2017-Jul-13 15:30N 40°37' W 074°04'0 0.7
2017-Jul-13 15:00N 40°38' W 074°04'0 0.1
2017-Jul-13 14:30N 40°38' W 074°04'1 1.0
2017-Jul-13 14:00N 40°38' W 074°03'4 8.0
2017-Jul-13 13:30N 40°34' W 074°02'5 9.4
2017-Jul-13 12:59N 40°29' W 074°03'3 7.2
2017-Jul-13 12:30N 40°30' W 074°07'4 8.3
2017-Jul-13 12:00N 40°30' W 074°13'3 3.3
2017-Jul-13 11:12N 40°32' W 074°15'1 0.0
2017-Jul-12 04:47N 40°34' W 074°14'0 0.5
2017-Jul-12 04:30N 40°33' W 074°14'2 4.3
2017-Jul-12 03:59N 40°35' W 074°12'3 5.5
2017-Jul-12 03:30N 40°38' W 074°12'3 5.5
2017-Jul-12 03:01N 40°39' W 074°09'2 4.2
2017-Jul-12 02:30N 40°39' W 074°06'2 4.4
2017-Jul-12 02:00N 40°39' W 074°03'0 0.0
2017-Jul-12 01:30N 40°39' W 074°03'0 0.0
2017-Jul-12 01:00N 40°39' W 074°03'0 0.0
2017-Jul-12 00:30N 40°39' W 074°03'0 0.0
2017-Jul-12 00:00N 40°39' W 074°03'0 0.2
2017-Jul-11 23:30N 40°39' W 074°03'0 0.1
2017-Jul-11 23:00N 40°39' W 074°03'0 0.1
2017-Jul-11 22:30N 40°39' W 074°03'0 0.1
2017-Jul-11 22:00N 40°39' W 074°03'0 0.1
2017-Jul-11 21:30N 40°39' W 074°03'0 0.0
2017-Jul-11 21:00N 40°39' W 074°03'0 0.0
2017-Jul-11 20:30N 40°39' W 074°03'0 0.1
2017-Jul-11 20:00N 40°39' W 074°03'0 0.0
2017-Jul-11 19:30N 40°39' W 074°03'0 0.0
2017-Jul-11 19:00N 40°39' W 074°03'0 0.1
2017-Jul-11 18:30N 40°39' W 074°03'0 0.0
2017-Jul-11 18:00N 40°39' W 074°03'0 0.1
2017-Jul-11 17:30N 40°39' W 074°03'0 0.1
2017-Jul-11 17:00N 40°39' W 074°03'0 0.1
2017-Jul-11 16:30N 40°39' W 074°03'0 0.2
2017-Jul-11 16:00N 40°39' W 074°03'0 0.0
2017-Jul-11 15:30N 40°39' W 074°03'0 0.1
2017-Jul-11 15:00N 40°39' W 074°03'0 0.0
2017-Jul-11 14:27N 40°39' W 074°03'0 0.0
2017-Jul-11 14:00N 40°39' W 074°03'0 0.0
2017-Jul-11 13:30N 40°39' W 074°03'0 0.0
2017-Jul-11 13:00N 40°39' W 074°03'3 5.0
2017-Jul-11 12:30N 40°36' W 074°03'510.4
2017-Jul-11 12:00N 40°31' W 074°00'610.9
2017-Jul-11 11:30N 40°29' W 073°54'12 2.2
2017-Jul-11 06:09N 40°29' W 073°38'0 0.0
2017-Jul-11 05:45N 40°29' W 073°38'0 0.0
2017-Jul-11 05:30N 40°29' W 073°38'0 0.0
2017-Jul-11 04:57N 40°29' W 073°38'0 0.0
2017-Jul-11 00:57N 40°29' W 073°38'0 0.0
2017-Jul-11 00:30N 40°29' W 073°38'0 0.0
2017-Jul-11 00:00N 40°29' W 073°38'0 0.0
2017-Jul-10 22:01N 40°29' W 073°38'0 1.0
2017-Jul-10 22:00N 40°29' W 073°38'5 8.1
2017-Jul-10 21:26N 40°28' W 073°32'512.5
2017-Jul-10 21:00N 40°29' W 073°25'612.5
2017-Jul-10 20:30N 40°29' W 073°17'612.7
2017-Jul-10 19:59N 40°30' W 073°08'912.6
2017-Jul-10 19:14N 40°30' W 072°56'512.3
2017-Jul-10 18:50N 40°31' W 072°49'13 9.1
2017-Jul-10 17:24N 40°31' W 072°32'512.0
2017-Jul-10 16:59N 40°31' W 072°26'611.9
2017-Jul-10 16:30N 40°31' W 072°18'611.6
2017-Jul-10 16:00N 40°31' W 072°11'2311.7
2017-Jul-10 14:03N 40°32' W 071°41'111.8
2017-Jul-10 13:59N 40°32' W 071°39'612.0
2017-Jul-10 13:30N 40°32' W 071°32'1012.2
2017-Jul-10 12:40N 40°33' W 071°19'212.3
2017-Jul-10 12:30N 40°33' W 071°16'612.4
2017-Jul-10 12:00N 40°33' W 071°08'712.5
2017-Jul-10 11:26N 40°33' W 070°58'612.5
2017-Jul-10 10:59N 40°33' W 070°51'8712.1
2017-Jul-10 03:50N 40°35' W 068°57'1312.1
2017-Jul-10 02:46N 40°36' W 068°40'312.1
2017-Jul-10 02:29N 40°37' W 068°36'  

Dump ship's entire track history